Terminal Aerodrome Forecast
Issued by NWS

Home | Current Version | Previous Version | Text Only | Print | Product List | Glossary On
Versions: 1 2 3 4 5 6 7 8 9 10 11 12 13
000
FTUS45 KABQ 251120
TAFFMN
TAF
KFMN 251120Z 2512/2612 09008KT P6SM FEW100 SCT150
     FM252030 28015KT P6SM SCT100
     FM260100 31013KT P6SM VCSH BKN100
     FM260700 VRB05KT P6SM SCT150=

USA.gov is the U.S. government's official web portal to all federal, state and local government web resources and services.